createdAt,value
2018-05-26T00:01:28.230Z,67.70
2018-05-26T00:04:51.502Z,67.70
2018-05-26T00:08:15.232Z,68.40
2018-05-26T00:11:38.572Z,69.20
2018-05-26T00:15:04.175Z,69.30
2018-05-26T00:18:27.604Z,69.20
2018-05-26T00:21:51.047Z,69.20
2018-05-26T00:25:14.503Z,68.10
2018-05-26T00:28:37.942Z,68.10
2018-05-26T00:32:01.406Z,68.20
2018-05-26T00:35:25.480Z,67.70
2018-05-26T00:38:50.480Z,67.70
2018-05-26T00:42:13.812Z,69.30
2018-05-26T00:45:37.201Z,70.60
2018-05-26T00:49:00.620Z,70.70
2018-05-26T00:52:24.090Z,70.50
2018-05-26T00:55:47.513Z,69.80
2018-05-26T00:59:10.901Z,70.30
2018-05-26T01:02:34.384Z,70.40
2018-05-26T01:05:59.979Z,71.30
2018-05-26T01:09:23.414Z,71.20
2018-05-26T01:12:46.814Z,71.50
2018-05-26T01:16:10.264Z,71.60
2018-05-26T01:19:33.659Z,71.70
2018-05-26T01:22:57.680Z,71.90
2018-05-26T01:26:21.446Z,72.60
2018-05-26T01:29:46.935Z,72.60
2018-05-26T01:33:10.567Z,73.10
2018-05-26T01:36:34.165Z,72.90
2018-05-26T01:39:57.510Z,73.40
2018-05-26T01:43:20.919Z,74.20
2018-05-26T01:46:44.341Z,75.30
2018-05-26T01:50:07.802Z,75.30
2018-05-26T01:53:31.276Z,75.30
2018-05-26T01:56:54.680Z,75.60
2018-05-26T02:00:18.090Z,75.10
2018-05-26T02:03:41.689Z,75.70
2018-05-26T02:07:07.054Z,75.00
2018-05-26T02:10:30.467Z,75.00
2018-05-26T02:13:53.895Z,74.70
2018-05-26T02:17:17.301Z,75.60
2018-05-26T02:20:42.843Z,75.30
2018-05-26T02:24:06.337Z,75.20
2018-05-26T02:27:29.723Z,76.10
2018-05-26T02:30:53.119Z,76.10
2018-05-26T02:34:16.553Z,76.10
2018-05-26T02:37:40.147Z,76.40
2018-05-26T02:41:03.412Z,76.30
2018-05-26T02:44:26.683Z,76.60
2018-05-26T02:47:52.570Z,77.60
2018-05-26T02:51:16.643Z,77.70
2018-05-26T02:54:41.379Z,77.70
2018-05-26T02:58:04.842Z,76.30
2018-05-26T03:01:28.306Z,76.60
2018-05-26T03:04:57.203Z,76.10
2018-05-26T03:08:26.957Z,76.30
2018-05-26T03:11:56.802Z,76.30
2018-05-26T03:15:20.174Z,77.10
2018-05-26T03:18:44.414Z,76.70
2018-05-26T03:22:07.693Z,77.30
2018-05-26T03:25:33.212Z,77.20
2018-05-26T03:28:56.665Z,77.20
2018-05-26T03:32:21.549Z,77.90
2018-05-26T03:35:45.655Z,77.80
2018-05-26T03:39:10.528Z,77.80
2018-05-26T03:42:34.817Z,78.90
2018-05-26T03:46:00.184Z,79.30
2018-05-26T03:49:23.748Z,80.00
2018-05-26T03:52:47.065Z,79.50
2018-05-26T03:56:30.251Z,78.40
2018-05-26T04:00:11.562Z,78.40
2018-05-26T04:03:35.109Z,79.70
2018-05-26T04:06:58.496Z,79.70
2018-05-26T04:10:21.942Z,80.10
2018-05-26T04:13:45.558Z,80.00
2018-05-26T04:17:08.843Z,80.00
2018-05-26T04:20:32.291Z,80.70
2018-05-26T04:23:57.775Z,80.30
2018-05-26T04:27:21.217Z,80.10
2018-05-26T04:30:46.730Z,80.20
2018-05-26T04:34:10.303Z,80.10
2018-05-26T04:37:35.788Z,80.00
2018-05-26T04:40:59.192Z,79.40
2018-05-26T04:44:22.635Z,79.90
2018-05-26T04:47:46.088Z,79.90
2018-05-26T04:51:09.527Z,80.30
2018-05-26T04:54:32.986Z,79.70
2018-05-26T04:57:56.583Z,80.00
2018-05-26T05:01:20.049Z,80.00
2018-05-26T05:04:43.373Z,81.30
2018-05-26T05:08:06.763Z,80.50
2018-05-26T05:11:30.193Z,81.20
2018-05-26T05:14:55.730Z,81.90
2018-05-26T05:18:19.149Z,81.90
2018-05-26T05:21:42.770Z,79.40
2018-05-26T05:25:06.092Z,80.40
2018-05-26T05:28:31.605Z,78.40
2018-05-26T05:31:54.992Z,78.40
2018-05-26T05:35:18.473Z,77.40
2018-05-26T05:38:41.946Z,77.10
2018-05-26T05:42:05.383Z,75.70
2018-05-26T05:45:28.958Z,75.40
2018-05-26T05:48:52.456Z,74.90
2018-05-26T05:52:15.747Z,73.30
2018-05-26T05:55:39.302Z,73.50
2018-05-26T05:59:02.573Z,73.20
2018-05-26T06:02:26.001Z,73.30
2018-05-26T06:05:49.421Z,72.20
2018-05-26T06:09:12.861Z,72.20
2018-05-26T06:12:36.588Z,71.70
2018-05-26T06:16:01.911Z,70.60
2018-05-26T06:19:25.323Z,70.30
2018-05-26T06:22:48.802Z,70.00
2018-05-26T06:26:12.220Z,70.00
2018-05-26T06:29:36.323Z,69.10
2018-05-26T06:33:02.491Z,68.30
2018-05-26T06:36:27.348Z,67.30
2018-05-26T06:39:51.507Z,67.20
2018-05-26T06:43:14.966Z,66.30
2018-05-26T06:46:39.671Z,66.00
2018-05-26T06:50:03.098Z,65.90
2018-05-26T06:53:26.596Z,65.60
2018-05-26T06:56:50.046Z,65.60
2018-05-26T07:00:13.462Z,66.40
2018-05-26T07:03:36.889Z,65.60
2018-05-26T07:07:00.311Z,65.90
2018-05-26T07:10:23.777Z,65.40
2018-05-26T07:13:47.237Z,65.20
2018-05-26T07:17:10.729Z,66.50
2018-05-26T07:20:34.149Z,65.90
2018-05-26T07:23:57.586Z,64.50
2018-05-26T07:27:21.029Z,64.10
2018-05-26T07:30:44.451Z,63.20
2018-05-26T07:34:08.039Z,63.50
2018-05-26T07:37:33.368Z,63.90
2018-05-26T07:40:58.969Z,62.60
2018-05-26T07:44:22.367Z,63.30
2018-05-26T07:47:45.803Z,62.50
2018-05-26T07:51:09.284Z,62.30
2018-05-26T07:54:32.750Z,63.60
2018-05-26T07:57:56.325Z,64.10
2018-05-26T08:01:19.623Z,63.90
2018-05-26T08:04:42.997Z,64.40
2018-05-26T08:08:07.175Z,65.90
2018-05-26T08:11:31.994Z,65.90
2018-05-26T08:14:55.381Z,66.50
2018-05-26T08:18:19.895Z,65.90
2018-05-26T08:21:43.308Z,63.50
2018-05-26T08:25:08.857Z,61.30
2018-05-26T08:28:32.361Z,61.30
2018-05-26T08:31:55.810Z,61.80
2018-05-26T08:35:19.436Z,61.60
2018-05-26T08:38:43.176Z,60.00
2018-05-26T08:42:08.227Z,58.00
2018-05-26T08:45:33.477Z,58.00
2018-05-26T08:48:58.999Z,56.90
2018-05-26T08:52:22.433Z,56.90
2018-05-26T08:55:45.862Z,56.80
2018-05-26T08:59:09.327Z,56.50
2018-05-26T09:02:32.770Z,55.70
2018-05-26T09:05:56.182Z,56.00
2018-05-26T09:09:19.753Z,55.40
2018-05-26T09:12:43.024Z,54.20
2018-05-26T09:16:06.506Z,53.70
2018-05-26T09:19:29.932Z,53.50
2018-05-26T09:22:53.312Z,53.60
2018-05-26T09:26:16.781Z,54.10
2018-05-26T09:29:40.266Z,54.00
2018-05-26T09:33:03.655Z,53.10
2018-05-26T09:36:29.165Z,50.90
2018-05-26T09:39:52.573Z,50.80
2018-05-26T09:43:16.003Z,51.70
2018-05-26T09:46:39.468Z,51.50
2018-05-26T09:50:02.870Z,51.80
2018-05-26T09:53:26.317Z,52.00
2018-05-26T09:56:49.845Z,52.60
2018-05-26T10:00:13.199Z,52.80
2018-05-26T10:03:36.557Z,54.00
2018-05-26T10:07:02.257Z,53.10
2018-05-26T10:10:25.634Z,53.10
2018-05-26T10:13:48.942Z,52.60
2018-05-26T10:17:14.485Z,53.20
2018-05-26T10:20:37.955Z,53.10
2018-05-26T10:24:01.375Z,51.90
2018-05-26T10:27:24.818Z,51.90
2018-05-26T10:30:50.355Z,50.80
2018-05-26T10:34:15.815Z,50.60
2018-05-26T10:37:39.408Z,50.60
2018-05-26T10:41:02.732Z,49.90
2018-05-26T10:44:26.271Z,50.50
2018-05-26T10:47:49.613Z,50.60
2018-05-26T10:51:16.649Z,49.80
2018-05-26T10:54:41.018Z,49.80
2018-05-26T10:58:06.386Z,49.80
2018-05-26T11:01:30.270Z,48.90
2018-05-26T11:04:57.339Z,47.90
2018-05-26T11:08:21.386Z,47.90
2018-05-26T11:11:44.840Z,47.50
2018-05-26T11:15:08.322Z,47.30
2018-05-26T11:18:31.717Z,46.50
2018-05-26T11:21:55.140Z,46.50
2018-05-26T11:25:18.620Z,46.40
2018-05-26T11:28:42.004Z,45.90
2018-05-26T11:32:05.426Z,46.50
2018-05-26T11:35:29.285Z,45.40
2018-05-26T11:38:54.376Z,45.30
2018-05-26T11:42:17.864Z,44.90
2018-05-26T11:45:41.326Z,45.20
2018-05-26T11:49:04.823Z,45.10
2018-05-26T11:52:28.172Z,44.70
2018-05-26T11:55:51.636Z,44.20
2018-05-26T11:59:15.172Z,42.70
2018-05-26T12:02:38.524Z,43.90
2018-05-26T12:06:04.088Z,40.70
2018-05-26T12:09:27.550Z,40.60
2018-05-26T12:12:51.245Z,41.00
2018-05-26T12:16:14.720Z,42.70
2018-05-26T12:19:38.220Z,43.20
2018-05-26T12:23:01.744Z,45.50
2018-05-26T12:26:25.284Z,45.50
2018-05-26T12:29:49.166Z,44.80
2018-05-26T12:33:14.243Z,43.60
2018-05-26T12:36:37.804Z,44.90
2018-05-26T12:40:01.451Z,43.10
2018-05-26T12:43:26.685Z,42.00
2018-05-26T12:46:50.379Z,40.30
2018-05-26T12:50:14.508Z,39.00
2018-05-26T12:53:39.563Z,37.00
2018-05-26T12:57:03.005Z,37.00
2018-05-26T13:00:27.762Z,37.00
2018-05-26T13:03:52.131Z,39.20
2018-05-26T13:07:15.697Z,38.20
2018-05-26T13:10:40.997Z,39.00
2018-05-26T13:14:05.255Z,39.30
2018-05-26T13:17:29.102Z,39.40
2018-05-26T13:20:52.409Z,39.80
2018-05-26T13:24:15.954Z,39.20
2018-05-26T13:27:39.340Z,36.30
2018-05-26T13:31:02.777Z,37.60
2018-05-26T13:34:26.273Z,34.00
2018-05-26T13:37:49.775Z,33.20
2018-05-26T13:41:13.338Z,33.50
2018-05-26T13:44:39.053Z,34.00
2018-05-26T13:48:02.501Z,34.00
2018-05-26T13:51:26.086Z,32.70
2018-05-26T13:54:51.638Z,32.20
2018-05-26T13:58:15.072Z,32.20
2018-05-26T14:01:38.500Z,31.50
2018-05-26T14:05:01.998Z,31.80
2018-05-26T14:08:25.475Z,31.60
2018-05-26T14:11:48.959Z,31.60
2018-05-26T14:15:12.373Z,31.60
2018-05-26T14:18:37.901Z,32.50
2018-05-26T14:22:01.339Z,32.50
2018-05-26T14:25:24.795Z,33.10
2018-05-26T14:28:48.257Z,32.80
2018-05-26T14:32:11.653Z,33.40
2018-05-26T14:35:37.198Z,33.60
2018-05-26T14:39:03.167Z,33.00
2018-05-26T14:42:28.276Z,32.90
2018-05-26T14:45:51.723Z,32.90
2018-05-26T14:49:16.629Z,32.00
2018-05-26T14:52:40.670Z,30.50
2018-05-26T14:56:06.197Z,29.90
2018-05-26T14:59:33.217Z,29.10
2018-05-26T15:02:57.314Z,29.80
2018-05-26T15:06:22.791Z,30.00
2018-05-26T15:09:48.312Z,30.00
2018-05-26T15:13:14.091Z,30.50
2018-05-26T15:16:39.353Z,30.40
2018-05-26T15:20:02.869Z,30.00
2018-05-26T15:23:28.342Z,29.70
2018-05-26T15:26:54.023Z,30.70
2018-05-26T15:30:17.521Z,30.70
2018-05-26T15:33:42.807Z,33.60
2018-05-26T15:37:06.436Z,34.10
2018-05-26T15:40:29.703Z,33.20
2018-05-26T15:43:55.293Z,31.30
2018-05-26T15:47:18.757Z,31.30
2018-05-26T15:50:42.207Z,30.80
2018-05-26T15:54:05.708Z,31.90
2018-05-26T15:57:29.093Z,32.70
2018-05-26T16:00:52.563Z,31.70
2018-05-26T16:04:15.987Z,31.70
2018-05-26T16:07:39.470Z,32.50
2018-05-26T16:11:02.869Z,32.30
2018-05-26T16:14:26.334Z,32.40
2018-05-26T16:17:49.802Z,32.60
2018-05-26T16:21:15.305Z,30.30
2018-05-26T16:24:38.747Z,30.30
2018-05-26T16:28:02.262Z,31.00
2018-05-26T16:31:25.605Z,30.90
2018-05-26T16:34:49.033Z,29.80
2018-05-26T16:38:14.735Z,29.50
2018-05-26T16:41:40.142Z,29.70
2018-05-26T16:45:03.688Z,29.70
2018-05-26T16:48:29.067Z,30.00
2018-05-26T16:51:54.747Z,31.40
2018-05-26T16:55:18.137Z,31.40
2018-05-26T16:58:41.709Z,31.70
2018-05-26T17:02:04.995Z,33.10
2018-05-26T17:05:28.435Z,33.10
2018-05-26T17:08:51.877Z,33.70
2018-05-26T17:12:15.273Z,34.90
2018-05-26T17:15:38.733Z,35.50
2018-05-26T17:19:02.223Z,35.50
2018-05-26T17:22:27.866Z,35.50
2018-05-26T17:25:51.165Z,35.50
2018-05-26T17:29:14.631Z,36.30
2018-05-26T17:32:38.114Z,36.30
2018-05-26T17:36:01.503Z,37.00
2018-05-26T17:39:27.040Z,37.30
2018-05-26T17:42:50.861Z,37.30
2018-05-26T17:46:15.985Z,38.00
2018-05-26T17:49:39.425Z,37.90
2018-05-26T17:53:02.872Z,37.80
2018-05-26T17:56:26.777Z,39.20
2018-05-26T17:59:52.430Z,41.70
2018-05-26T18:03:15.763Z,41.70
2018-05-26T18:06:39.351Z,42.60
2018-05-26T18:10:02.857Z,43.50
2018-05-26T18:14:00.685Z,44.40
2018-05-26T18:17:25.329Z,45.20
2018-05-26T18:20:48.977Z,46.10
2018-05-26T18:24:14.310Z,46.80
2018-05-26T18:27:37.740Z,47.80
2018-05-26T18:31:01.436Z,48.30
2018-05-26T18:34:27.047Z,48.70
2018-05-26T18:37:52.307Z,49.10
2018-05-26T18:41:15.852Z,49.20
2018-05-26T18:44:39.545Z,49.60
2018-05-26T18:48:04.848Z,49.90
2018-05-26T18:51:28.584Z,50.40
2018-05-26T18:54:53.773Z,50.50
2018-05-26T18:58:17.277Z,50.80
2018-05-26T19:01:40.997Z,51.10
2018-05-26T19:05:06.309Z,51.40
2018-05-26T19:08:29.818Z,52.10
2018-05-26T19:11:53.209Z,52.40
2018-05-26T19:15:16.687Z,53.00
2018-05-26T19:18:42.302Z,53.90
2018-05-26T19:22:05.815Z,53.90
2018-05-26T19:25:31.365Z,54.60
2018-05-26T19:28:56.297Z,55.10
2018-05-26T19:32:20.521Z,55.50
2018-05-26T19:35:44.155Z,55.50
2018-05-26T19:39:07.849Z,56.00
2018-05-26T19:42:31.437Z,56.40
2018-05-26T19:45:56.752Z,56.90
2018-05-26T19:49:20.347Z,57.10
2018-05-26T19:52:43.803Z,56.20
2018-05-26T19:56:07.191Z,55.10
2018-05-26T19:59:32.926Z,54.90
2018-05-26T20:02:56.515Z,54.90
2018-05-26T20:06:19.927Z,54.20
2018-05-26T20:09:45.821Z,53.90
2018-05-26T20:13:09.933Z,53.90
2018-05-26T20:16:33.596Z,54.10
2018-05-26T20:19:57.672Z,54.90
2018-05-26T20:24:15.763Z,55.10
2018-05-26T20:27:41.331Z,54.10
2018-05-26T20:31:06.773Z,53.30
2018-05-26T20:34:32.653Z,52.90
2018-05-26T20:37:58.951Z,52.70
2018-05-26T20:41:23.919Z,53.60
2018-05-26T20:44:49.344Z,54.50
2018-05-26T20:48:14.931Z,55.00
2018-05-26T20:51:40.588Z,54.70
2018-05-26T20:55:06.109Z,54.70
2018-05-26T20:58:31.694Z,54.40
2018-05-26T21:01:56.309Z,54.70
2018-05-26T21:05:21.486Z,55.50
2018-05-26T21:08:47.224Z,53.30
2018-05-26T21:12:12.757Z,52.80
2018-05-26T21:15:38.353Z,50.40
2018-05-26T21:19:03.898Z,50.70
2018-05-26T21:22:27.427Z,50.70
2018-05-26T21:25:52.842Z,51.00
2018-05-26T21:29:17.671Z,50.70
2018-05-26T21:32:42.291Z,51.20
2018-05-26T21:36:06.259Z,51.20
2018-05-26T21:39:32.080Z,50.60
2018-05-26T21:42:55.617Z,50.60
2018-05-26T21:46:19.321Z,51.00
2018-05-26T21:49:44.957Z,50.70
2018-05-26T21:53:08.497Z,50.70
2018-05-26T22:04:31.573Z,52.00
2018-05-26T22:07:55.713Z,54.20
2018-05-26T22:11:19.133Z,54.10
2018-05-26T22:14:45.191Z,56.80
2018-05-26T22:18:10.148Z,56.00
2018-05-26T22:21:34.124Z,56.00
2018-05-26T22:24:59.201Z,57.30
2018-05-26T22:28:22.731Z,57.10
2018-05-26T22:31:46.091Z,57.60
2018-05-26T22:35:09.548Z,57.90
2018-05-26T22:38:33.003Z,58.30
2018-05-26T22:41:56.541Z,58.60
2018-05-26T22:45:19.977Z,59.60
2018-05-26T22:48:43.590Z,61.00
2018-05-26T22:52:06.967Z,62.00
2018-05-26T22:55:32.499Z,62.70
2018-05-26T22:58:57.609Z,62.70
2018-05-26T23:02:21.645Z,62.40
2018-05-26T23:05:47.218Z,61.70
2018-05-26T23:09:10.811Z,61.70
2018-05-26T23:12:34.303Z,62.70
2018-05-26T23:15:59.876Z,62.90
2018-05-26T23:19:23.322Z,62.90
2018-05-26T23:22:48.873Z,64.50
2018-05-26T23:26:12.328Z,64.40
2018-05-26T23:29:35.886Z,65.20
2018-05-26T23:32:59.396Z,65.50
2018-05-26T23:36:22.777Z,66.20
2018-05-26T23:39:46.705Z,66.70
2018-05-26T23:43:11.722Z,67.10
2018-05-26T23:46:35.246Z,66.70
2018-05-26T23:49:58.642Z,66.80
2018-05-26T23:53:22.158Z,67.30
2018-05-26T23:56:45.460Z,68.20
